<?xml version="1.0" encoding="UTF-8" standalone="no" ?>
<gpx xmlns="http://www.topografix.com/GPX/1/1" xmlns:xsi="http://www.w3.org/2001/XMLSchema-instance" xsi:schemaLocation="http://www.topografix.com/GPX/1/1 http://www.topografix.com/GPX/1/1/gpx.xsd" version="1.1" creator="VisuGPX - https://www.visugpx.com">
  <metadata>
    <name>Velo</name>
    <desc><![CDATA[idor:10246719_102515280_10794639_12973163_1418743_13428926_12998252_13558460_14716825_14357364_14251590]]></desc>
  </metadata>
  <trk>
    <name><![CDATA[ChapelleE_SuceStMarsD_40km-14357364]]></name>
    <extensions>
      <line xmlns="http://www.topografix.com/GPX/gpx_style/0/2">
        <color>008888</color>
        <width>4</width>
      </line>
    </extensions>
    <trkseg>
      <trkpt lat="47.26745" lon="-1.54529">
        <ele>28</ele>
        <time>2023-11-15T08:00:35Z</time>
      </trkpt>
      <trkpt lat="47.27659" lon="-1.54809">
        <ele>38</ele>
        <time>2023-11-15T08:21:21Z</time>
      </trkpt>
      <trkpt lat="47.28566" lon="-1.54983">
        <ele>26</ele>
        <time>2023-11-15T08:41:41Z</time>
      </trkpt>
      <trkpt lat="47.29715" lon="-1.5484">
        <ele>26</ele>
        <time>2023-11-15T09:07:20Z</time>
      </trkpt>
      <trkpt lat="47.303" lon="-1.54636">
        <ele>20</ele>
        <time>2023-11-15T09:20:42Z</time>
      </trkpt>
      <trkpt lat="47.30774" lon="-1.54273">
        <ele>22</ele>
        <time>2023-11-15T09:32:35Z</time>
      </trkpt>
      <trkpt lat="47.31608" lon="-1.54304">
        <ele>9</ele>
        <time>2023-11-15T09:51:08Z</time>
      </trkpt>
      <trkpt lat="47.32103" lon="-1.53564">
        <ele>16</ele>
        <time>2023-11-15T10:06:49Z</time>
      </trkpt>
      <trkpt lat="47.3265" lon="-1.53707">
        <ele>26</ele>
        <time>2023-11-15T10:19:10Z</time>
      </trkpt>
      <trkpt lat="47.3366" lon="-1.53493">
        <ele>13</ele>
        <time>2023-11-15T10:41:52Z</time>
      </trkpt>
      <trkpt lat="47.33961" lon="-1.53176">
        <ele>11</ele>
        <time>2023-11-15T10:50:05Z</time>
      </trkpt>
      <trkpt lat="47.34002" lon="-1.52885">
        <ele>10</ele>
        <time>2023-11-15T10:54:34Z</time>
      </trkpt>
      <trkpt lat="47.33909" lon="-1.52799">
        <ele>6</ele>
        <time>2023-11-15T10:57:00Z</time>
      </trkpt>
      <trkpt lat="47.33936" lon="-1.52594">
        <ele>7</ele>
        <time>2023-11-15T11:00:09Z</time>
      </trkpt>
      <trkpt lat="47.33691" lon="-1.52472">
        <ele>10</ele>
        <time>2023-11-15T11:05:54Z</time>
      </trkpt>
      <trkpt lat="47.33051" lon="-1.51237">
        <ele>7</ele>
        <time>2023-11-15T11:29:20Z</time>
      </trkpt>
      <trkpt lat="47.33649" lon="-1.51084">
        <ele>16</ele>
        <time>2023-11-15T11:42:50Z</time>
      </trkpt>
      <trkpt lat="47.33798" lon="-1.50385">
        <ele>11</ele>
        <time>2023-11-15T11:53:53Z</time>
      </trkpt>
      <trkpt lat="47.33545" lon="-1.49342">
        <ele>9</ele>
        <time>2023-11-15T12:10:35Z</time>
      </trkpt>
      <trkpt lat="47.33725" lon="-1.49093">
        <ele>14</ele>
        <time>2023-11-15T12:16:04Z</time>
      </trkpt>
      <trkpt lat="47.34412" lon="-1.47917">
        <ele>8</ele>
        <time>2023-11-15T12:39:28Z</time>
      </trkpt>
      <trkpt lat="47.35011" lon="-1.47231">
        <ele>12</ele>
        <time>2023-11-15T12:56:20Z</time>
      </trkpt>
      <trkpt lat="47.35188" lon="-1.47239">
        <ele>12</ele>
        <time>2023-11-15T13:00:16Z</time>
      </trkpt>
      <trkpt lat="47.35252" lon="-1.47314">
        <ele>10</ele>
        <time>2023-11-15T13:02:05Z</time>
      </trkpt>
      <trkpt lat="47.35368" lon="-1.47271">
        <ele>13</ele>
        <time>2023-11-15T13:04:45Z</time>
      </trkpt>
      <trkpt lat="47.35747" lon="-1.4696">
        <ele>7</ele>
        <time>2023-11-15T13:14:24Z</time>
      </trkpt>
      <trkpt lat="47.35766" lon="-1.46659">
        <ele>3</ele>
        <time>2023-11-15T13:18:57Z</time>
      </trkpt>
      <trkpt lat="47.35889" lon="-1.46569">
        <ele>3</ele>
        <time>2023-11-15T13:22:00Z</time>
      </trkpt>
      <trkpt lat="47.35912" lon="-1.46384">
        <ele>5</ele>
        <time>2023-11-15T13:24:50Z</time>
      </trkpt>
      <trkpt lat="47.35825" lon="-1.4623">
        <ele>6</ele>
        <time>2023-11-15T13:27:51Z</time>
      </trkpt>
      <trkpt lat="47.35772" lon="-1.45569">
        <ele>13</ele>
        <time>2023-11-15T13:37:53Z</time>
      </trkpt>
      <trkpt lat="47.35801" lon="-1.44307">
        <ele>32</ele>
        <time>2023-11-15T13:56:55Z</time>
      </trkpt>
      <trkpt lat="47.35944" lon="-1.44088">
        <ele>34</ele>
        <time>2023-11-15T14:01:30Z</time>
      </trkpt>
      <trkpt lat="47.35612" lon="-1.43389">
        <ele>48</ele>
        <time>2023-11-15T14:14:21Z</time>
      </trkpt>
      <trkpt lat="47.3549" lon="-1.42908">
        <ele>55</ele>
        <time>2023-11-15T14:22:06Z</time>
      </trkpt>
      <trkpt lat="47.35429" lon="-1.41539">
        <ele>63</ele>
        <time>2023-11-15T14:42:46Z</time>
      </trkpt>
      <trkpt lat="47.35266" lon="-1.40578">
        <ele>70</ele>
        <time>2023-11-15T14:57:41Z</time>
      </trkpt>
      <trkpt lat="47.34766" lon="-1.41187">
        <ele>66</ele>
        <time>2023-11-15T15:12:07Z</time>
      </trkpt>
      <trkpt lat="47.34598" lon="-1.41556">
        <ele>68</ele>
        <time>2023-11-15T15:18:49Z</time>
      </trkpt>
      <trkpt lat="47.34542" lon="-1.42015">
        <ele>66</ele>
        <time>2023-11-15T15:25:50Z</time>
      </trkpt>
      <trkpt lat="47.34633" lon="-1.43509">
        <ele>57</ele>
        <time>2023-11-15T15:48:27Z</time>
      </trkpt>
      <trkpt lat="47.3456" lon="-1.4411">
        <ele>53</ele>
        <time>2023-11-15T15:57:39Z</time>
      </trkpt>
      <trkpt lat="47.34313" lon="-1.4451">
        <ele>45</ele>
        <time>2023-11-15T16:05:48Z</time>
      </trkpt>
      <trkpt lat="47.33324" lon="-1.45849">
        <ele>51</ele>
        <time>2023-11-15T16:35:39Z</time>
      </trkpt>
      <trkpt lat="47.32509" lon="-1.46166">
        <ele>38</ele>
        <time>2023-11-15T16:54:24Z</time>
      </trkpt>
      <trkpt lat="47.31957" lon="-1.46149">
        <ele>30</ele>
        <time>2023-11-15T17:06:41Z</time>
      </trkpt>
      <trkpt lat="47.31631" lon="-1.46398">
        <ele>20</ele>
        <time>2023-11-15T17:14:51Z</time>
      </trkpt>
      <trkpt lat="47.30723" lon="-1.47926">
        <ele>11</ele>
        <time>2023-11-15T17:45:29Z</time>
      </trkpt>
      <trkpt lat="47.30822" lon="-1.48063">
        <ele>11</ele>
        <time>2023-11-15T17:48:30Z</time>
      </trkpt>
      <trkpt lat="47.30751" lon="-1.48251">
        <ele>21</ele>
        <time>2023-11-15T17:51:45Z</time>
      </trkpt>
      <trkpt lat="47.30627" lon="-1.48072">
        <ele>11</ele>
        <time>2023-11-15T17:55:36Z</time>
      </trkpt>
      <trkpt lat="47.30349" lon="-1.48443">
        <ele>18</ele>
        <time>2023-11-15T18:03:57Z</time>
      </trkpt>
      <trkpt lat="47.2978" lon="-1.48613">
        <ele>26</ele>
        <time>2023-11-15T18:16:51Z</time>
      </trkpt>
      <trkpt lat="47.29652" lon="-1.48634">
        <ele>27</ele>
        <time>2023-11-15T18:19:43Z</time>
      </trkpt>
      <trkpt lat="47.29393" lon="-1.48779">
        <ele>28</ele>
        <time>2023-11-15T18:25:53Z</time>
      </trkpt>
      <trkpt lat="47.29295" lon="-1.49522">
        <ele>19</ele>
        <time>2023-11-15T18:37:18Z</time>
      </trkpt>
      <trkpt lat="47.29094" lon="-1.49869">
        <ele>12</ele>
        <time>2023-11-15T18:44:11Z</time>
      </trkpt>
      <trkpt lat="47.28717" lon="-1.49905">
        <ele>16</ele>
        <time>2023-11-15T18:52:35Z</time>
      </trkpt>
      <trkpt lat="47.28335" lon="-1.50605">
        <ele>21</ele>
        <time>2023-11-15T19:06:08Z</time>
      </trkpt>
      <trkpt lat="47.27508" lon="-1.50966">
        <ele>25</ele>
        <time>2023-11-15T19:25:19Z</time>
      </trkpt>
      <trkpt lat="47.26166" lon="-1.51702">
        <ele>26</ele>
        <time>2023-11-15T19:57:10Z</time>
      </trkpt>
      <trkpt lat="47.25862" lon="-1.51962">
        <ele>32</ele>
        <time>2023-11-15T20:04:59Z</time>
      </trkpt>
      <trkpt lat="47.25872" lon="-1.52748">
        <ele>19</ele>
        <time>2023-11-15T20:16:51Z</time>
      </trkpt>
      <trkpt lat="47.2547" lon="-1.52994">
        <ele>22</ele>
        <time>2023-11-15T20:26:32Z</time>
      </trkpt>
      <trkpt lat="47.25622" lon="-1.53939">
        <ele>8</ele>
        <time>2023-11-15T20:41:12Z</time>
      </trkpt>
      <trkpt lat="47.25848" lon="-1.54293">
        <ele>27</ele>
        <time>2023-11-15T20:48:32Z</time>
      </trkpt>
      <trkpt lat="47.26249" lon="-1.54286">
        <ele>20</ele>
        <time>2023-11-15T20:57:27Z</time>
      </trkpt>
      <trkpt lat="47.2645" lon="-1.54459">
        <ele>20</ele>
        <time>2023-11-15T21:02:38Z</time>
      </trkpt>
      <trkpt lat="47.26764" lon="-1.5461">
        <ele>28</ele>
        <time>2023-11-15T21:09:59Z</time>
      </trkpt>
    </trkseg>
  </trk>
</gpx>